sensor_id;sensor_type;location;lat;lon;timestamp;P1;durP1;ratioP1;P2;durP2;ratioP2
9716;SDS011;4897;43.570;27.832;2023-11-18T00:01:41;23.20;;;20.83;;
9716;SDS011;4897;43.570;27.832;2023-11-18T00:04:10;21.42;;;19.38;;
9716;SDS011;4897;43.570;27.832;2023-11-18T00:06:40;23.27;;;20.83;;
9716;SDS011;4897;43.570;27.832;2023-11-18T00:09:09;23.67;;;21.30;;
9716;SDS011;4897;43.570;27.832;2023-11-18T00:11:38;25.20;;;20.98;;
9716;SDS011;4897;43.570;27.832;2023-11-18T00:14:05;23.55;;;21.25;;
9716;SDS011;4897;43.570;27.832;2023-11-18T00:16:32;22.98;;;20.15;;
9716;SDS011;4897;43.570;27.832;2023-11-18T00:19:00;23.88;;;21.38;;
9716;SDS011;4897;43.570;27.832;2023-11-18T00:21:31;26.40;;;21.95;;
9716;SDS011;4897;43.570;27.832;2023-11-18T00:23:58;25.63;;;22.80;;
9716;SDS011;4897;43.570;27.832;2023-11-18T00:26:25;25.42;;;22.67;;
9716;SDS011;4897;43.570;27.832;2023-11-18T00:28:52;25.85;;;23.20;;
9716;SDS011;4897;43.570;27.832;2023-11-18T00:31:18;25.33;;;21.85;;
9716;SDS011;4897;43.570;27.832;2023-11-18T00:33:45;25.55;;;22.85;;
9716;SDS011;4897;43.570;27.832;2023-11-18T00:36:12;24.73;;;22.13;;
9716;SDS011;4897;43.570;27.832;2023-11-18T00:38:41;26.30;;;22.02;;
9716;SDS011;4897;43.570;27.832;2023-11-18T00:41:07;25.92;;;22.77;;
9716;SDS011;4897;43.570;27.832;2023-11-18T00:43:37;22.30;;;20.02;;
9716;SDS011;4897;43.570;27.832;2023-11-18T00:46:04;24.45;;;21.80;;
9716;SDS011;4897;43.570;27.832;2023-11-18T00:48:31;23.63;;;21.33;;
9716;SDS011;4897;43.570;27.832;2023-11-18T00:50:58;22.65;;;20.50;;
9716;SDS011;4897;43.570;27.832;2023-11-18T00:53:25;22.02;;;19.00;;
9716;SDS011;4897;43.570;27.832;2023-11-18T00:55:53;21.90;;;19.83;;
9716;SDS011;4897;43.570;27.832;2023-11-18T00:58:20;19.52;;;17.67;;
9716;SDS011;4897;43.570;27.832;2023-11-18T01:00:47;19.63;;;17.60;;
9716;SDS011;4897;43.570;27.832;2023-11-18T01:03:14;22.00;;;19.90;;
9716;SDS011;4897;43.570;27.832;2023-11-18T01:05:41;22.25;;;19.90;;
9716;SDS011;4897;43.570;27.832;2023-11-18T01:08:08;23.92;;;21.50;;
9716;SDS011;4897;43.570;27.832;2023-11-18T01:10:35;27.05;;;24.10;;
9716;SDS011;4897;43.570;27.832;2023-11-18T01:13:03;29.17;;;23.55;;
9716;SDS011;4897;43.570;27.832;2023-11-18T01:15:31;29.45;;;26.27;;
9716;SDS011;4897;43.570;27.832;2023-11-18T01:17:59;28.02;;;24.67;;
9716;SDS011;4897;43.570;27.832;2023-11-18T01:20:27;30.75;;;26.83;;
9716;SDS011;4897;43.570;27.832;2023-11-18T01:22:54;29.08;;;25.52;;
9716;SDS011;4897;43.570;27.832;2023-11-18T01:25:21;32.47;;;26.60;;
9716;SDS011;4897;43.570;27.832;2023-11-18T01:27:48;34.25;;;29.60;;
9716;SDS011;4897;43.570;27.832;2023-11-18T01:30:16;37.63;;;29.45;;
9716;SDS011;4897;43.570;27.832;2023-11-18T01:32:43;32.28;;;28.85;;
9716;SDS011;4897;43.570;27.832;2023-11-18T01:35:11;30.20;;;25.10;;
9716;SDS011;4897;43.570;27.832;2023-11-18T01:37:38;30.08;;;26.95;;
9716;SDS011;4897;43.570;27.832;2023-11-18T01:40:05;32.25;;;28.83;;
9716;SDS011;4897;43.570;27.832;2023-11-18T01:42:33;30.35;;;26.73;;
9716;SDS011;4897;43.570;27.832;2023-11-18T01:45:00;35.00;;;28.02;;
9716;SDS011;4897;43.570;27.832;2023-11-18T01:47:30;32.42;;;26.83;;
9716;SDS011;4897;43.570;27.832;2023-11-18T01:49:58;32.28;;;27.55;;
9716;SDS011;4897;43.570;27.832;2023-11-18T01:52:26;33.03;;;27.48;;
9716;SDS011;4897;43.570;27.832;2023-11-18T01:54:55;30.55;;;27.27;;
9716;SDS011;4897;43.570;27.832;2023-11-18T01:57:22;30.38;;;26.63;;
9716;SDS011;4897;43.570;27.832;2023-11-18T01:59:52;35.30;;;27.05;;
9716;SDS011;4897;43.570;27.832;2023-11-18T02:02:19;30.73;;;26.55;;
9716;SDS011;4897;43.570;27.832;2023-11-18T02:04:48;32.47;;;27.83;;
9716;SDS011;4897;43.570;27.832;2023-11-18T02:07:15;30.27;;;25.00;;
9716;SDS011;4897;43.570;27.832;2023-11-18T02:09:43;31.83;;;27.60;;
9716;SDS011;4897;43.570;27.832;2023-11-18T02:12:18;31.67;;;27.15;;
9716;SDS011;4897;43.570;27.832;2023-11-18T02:14:49;32.85;;;27.17;;
9716;SDS011;4897;43.570;27.832;2023-11-18T02:17:20;37.22;;;28.85;;
9716;SDS011;4897;43.570;27.832;2023-11-18T02:19:50;33.72;;;27.65;;
9716;SDS011;4897;43.570;27.832;2023-11-18T02:22:19;32.83;;;26.27;;
9716;SDS011;4897;43.570;27.832;2023-11-18T02:24:46;32.65;;;27.20;;
9716;SDS011;4897;43.570;27.832;2023-11-18T02:27:15;33.03;;;27.27;;
9716;SDS011;4897;43.570;27.832;2023-11-18T02:29:45;31.17;;;25.25;;
9716;SDS011;4897;43.570;27.832;2023-11-18T02:32:17;34.78;;;27.02;;
9716;SDS011;4897;43.570;27.832;2023-11-18T02:34:49;31.23;;;25.60;;
9716;SDS011;4897;43.570;27.832;2023-11-18T02:37:22;30.85;;;25.42;;
9716;SDS011;4897;43.570;27.832;2023-11-18T02:39:52;31.73;;;27.42;;
9716;SDS011;4897;43.570;27.832;2023-11-18T02:42:24;30.55;;;26.00;;
9716;SDS011;4897;43.570;27.832;2023-11-18T02:44:52;31.90;;;25.30;;
9716;SDS011;4897;43.570;27.832;2023-11-18T02:47:24;30.10;;;24.40;;
9716;SDS011;4897;43.570;27.832;2023-11-18T02:49:53;26.83;;;23.80;;
9716;SDS011;4897;43.570;27.832;2023-11-18T02:52:21;27.42;;;23.90;;
9716;SDS011;4897;43.570;27.832;2023-11-18T02:54:49;31.17;;;24.50;;
9716;SDS011;4897;43.570;27.832;2023-11-18T02:57:15;30.67;;;24.90;;
9716;SDS011;4897;43.570;27.832;2023-11-18T02:59:44;27.55;;;23.35;;
9716;SDS011;4897;43.570;27.832;2023-11-18T03:02:13;28.90;;;24.25;;
9716;SDS011;4897;43.570;27.832;2023-11-18T03:04:40;26.35;;;22.83;;
9716;SDS011;4897;43.570;27.832;2023-11-18T03:07:09;26.73;;;23.23;;
9716;SDS011;4897;43.570;27.832;2023-11-18T03:09:36;30.65;;;23.65;;
9716;SDS011;4897;43.570;27.832;2023-11-18T03:12:05;29.40;;;22.85;;
9716;SDS011;4897;43.570;27.832;2023-11-18T03:14:33;25.08;;;21.63;;
9716;SDS011;4897;43.570;27.832;2023-11-18T03:17:01;25.52;;;21.75;;
9716;SDS011;4897;43.570;27.832;2023-11-18T03:19:31;28.65;;;22.23;;
9716;SDS011;4897;43.570;27.832;2023-11-18T03:21:59;25.80;;;21.88;;
9716;SDS011;4897;43.570;27.832;2023-11-18T03:24:26;26.13;;;21.42;;
9716;SDS011;4897;43.570;27.832;2023-11-18T03:26:54;28.45;;;22.95;;
9716;SDS011;4897;43.570;27.832;2023-11-18T03:29:21;24.80;;;20.52;;
9716;SDS011;4897;43.570;27.832;2023-11-18T03:31:49;24.58;;;21.40;;
9716;SDS011;4897;43.570;27.832;2023-11-18T03:34:19;26.95;;;20.42;;
9716;SDS011;4897;43.570;27.832;2023-11-18T03:36:47;22.73;;;20.33;;
9716;SDS011;4897;43.570;27.832;2023-11-18T03:39:17;24.40;;;20.80;;
9716;SDS011;4897;43.570;27.832;2023-11-18T03:41:44;28.10;;;21.23;;
9716;SDS011;4897;43.570;27.832;2023-11-18T03:44:11;25.10;;;20.13;;
9716;SDS011;4897;43.570;27.832;2023-11-18T03:46:38;24.73;;;20.63;;
9716;SDS011;4897;43.570;27.832;2023-11-18T03:49:08;23.02;;;20.45;;
9716;SDS011;4897;43.570;27.832;2023-11-18T03:51:36;24.50;;;20.70;;
9716;SDS011;4897;43.570;27.832;2023-11-18T03:54:03;26.17;;;20.77;;
9716;SDS011;4897;43.570;27.832;2023-11-18T03:56:30;22.80;;;19.15;;
9716;SDS011;4897;43.570;27.832;2023-11-18T03:58:57;24.48;;;21.15;;
9716;SDS011;4897;43.570;27.832;2023-11-18T04:01:24;25.23;;;21.08;;
9716;SDS011;4897;43.570;27.832;2023-11-18T04:03:52;25.73;;;21.65;;
9716;SDS011;4897;43.570;27.832;2023-11-18T04:06:20;24.95;;;20.10;;
9716;SDS011;4897;43.570;27.832;2023-11-18T04:08:49;27.15;;;22.20;;
9716;SDS011;4897;43.570;27.832;2023-11-18T04:11:16;25.92;;;22.05;;
9716;SDS011;4897;43.570;27.832;2023-11-18T04:13:43;27.38;;;23.15;;
9716;SDS011;4897;43.570;27.832;2023-11-18T04:16:11;27.70;;;23.67;;
9716;SDS011;4897;43.570;27.832;2023-11-18T04:18:38;31.75;;;25.30;;
9716;SDS011;4897;43.570;27.832;2023-11-18T04:21:06;29.10;;;23.08;;
9716;SDS011;4897;43.570;27.832;2023-11-18T04:23:34;29.80;;;23.90;;
9716;SDS011;4897;43.570;27.832;2023-11-18T04:26:03;27.17;;;23.50;;
9716;SDS011;4897;43.570;27.832;2023-11-18T04:28:30;30.67;;;25.10;;
9716;SDS011;4897;43.570;27.832;2023-11-18T04:30:58;30.33;;;24.20;;
9716;SDS011;4897;43.570;27.832;2023-11-18T04:33:25;31.70;;;24.25;;
9716;SDS011;4897;43.570;27.832;2023-11-18T04:35:54;36.80;;;26.17;;
9716;SDS011;4897;43.570;27.832;2023-11-18T04:38:22;35.00;;;26.88;;
9716;SDS011;4897;43.570;27.832;2023-11-18T04:40:49;39.40;;;27.20;;
9716;SDS011;4897;43.570;27.832;2023-11-18T04:43:17;39.08;;;28.40;;
9716;SDS011;4897;43.570;27.832;2023-11-18T04:45:45;43.38;;;29.35;;
9716;SDS011;4897;43.570;27.832;2023-11-18T04:48:12;42.63;;;28.50;;
9716;SDS011;4897;43.570;27.832;2023-11-18T04:50:39;42.03;;;29.75;;
9716;SDS011;4897;43.570;27.832;2023-11-18T04:53:07;40.55;;;27.95;;
9716;SDS011;4897;43.570;27.832;2023-11-18T04:55:36;44.38;;;28.10;;
9716;SDS011;4897;43.570;27.832;2023-11-18T04:58:03;40.75;;;28.60;;
9716;SDS011;4897;43.570;27.832;2023-11-18T05:00:32;41.92;;;29.80;;
9716;SDS011;4897;43.570;27.832;2023-11-18T05:02:59;37.58;;;25.48;;
9716;SDS011;4897;43.570;27.832;2023-11-18T05:05:26;37.03;;;26.88;;
9716;SDS011;4897;43.570;27.832;2023-11-18T05:07:53;30.85;;;22.60;;
9716;SDS011;4897;43.570;27.832;2023-11-18T05:10:20;40.28;;;27.05;;
9716;SDS011;4897;43.570;27.832;2023-11-18T05:12:47;35.83;;;25.83;;
9716;SDS011;4897;43.570;27.832;2023-11-18T05:15:20;33.42;;;26.05;;
9716;SDS011;4897;43.570;27.832;2023-11-18T05:17:51;31.67;;;26.42;;
9716;SDS011;4897;43.570;27.832;2023-11-18T05:20:18;35.72;;;26.02;;
9716;SDS011;4897;43.570;27.832;2023-11-18T05:22:46;33.47;;;27.45;;
9716;SDS011;4897;43.570;27.832;2023-11-18T05:25:13;30.75;;;25.73;;
9716;SDS011;4897;43.570;27.832;2023-11-18T05:27:40;21.30;;;18.73;;
9716;SDS011;4897;43.570;27.832;2023-11-18T05:30:08;31.60;;;25.65;;
9716;SDS011;4897;43.570;27.832;2023-11-18T05:32:36;31.98;;;24.33;;
9716;SDS011;4897;43.570;27.832;2023-11-18T05:35:05;29.80;;;25.48;;
9716;SDS011;4897;43.570;27.832;2023-11-18T05:37:32;32.97;;;24.65;;
9716;SDS011;4897;43.570;27.832;2023-11-18T05:40:03;29.77;;;25.23;;
9716;SDS011;4897;43.570;27.832;2023-11-18T05:42:32;31.00;;;25.33;;
9716;SDS011;4897;43.570;27.832;2023-11-18T05:45:01;29.73;;;24.50;;
9716;SDS011;4897;43.570;27.832;2023-11-18T05:47:30;31.77;;;26.20;;
9716;SDS011;4897;43.570;27.832;2023-11-18T05:49:57;33.08;;;25.58;;
9716;SDS011;4897;43.570;27.832;2023-11-18T05:52:25;30.23;;;24.17;;
9716;SDS011;4897;43.570;27.832;2023-11-18T05:54:53;32.88;;;27.40;;
9716;SDS011;4897;43.570;27.832;2023-11-18T05:57:19;34.35;;;28.40;;
9716;SDS011;4897;43.570;27.832;2023-11-18T05:59:46;34.80;;;28.40;;
9716;SDS011;4897;43.570;27.832;2023-11-18T06:02:16;36.53;;;29.45;;
9716;SDS011;4897;43.570;27.832;2023-11-18T06:04:44;34.35;;;25.27;;
9716;SDS011;4897;43.570;27.832;2023-11-18T06:07:14;73.07;;;67.15;;
9716;SDS011;4897;43.570;27.832;2023-11-18T06:09:43;49.10;;;44.00;;
9716;SDS011;4897;43.570;27.832;2023-11-18T06:12:11;58.05;;;52.53;;
9716;SDS011;4897;43.570;27.832;2023-11-18T06:14:38;72.53;;;65.97;;
9716;SDS011;4897;43.570;27.832;2023-11-18T06:17:07;80.50;;;73.47;;
9716;SDS011;4897;43.570;27.832;2023-11-18T06:19:39;84.75;;;77.65;;
9716;SDS011;4897;43.570;27.832;2023-11-18T06:22:06;91.18;;;83.60;;
9716;SDS011;4897;43.570;27.832;2023-11-18T06:24:33;87.43;;;80.22;;
9716;SDS011;4897;43.570;27.832;2023-11-18T06:27:01;93.80;;;86.28;;
9716;SDS011;4897;43.570;27.832;2023-11-18T06:29:28;90.82;;;83.53;;
9716;SDS011;4897;43.570;27.832;2023-11-18T06:31:55;93.07;;;85.55;;
9716;SDS011;4897;43.570;27.832;2023-11-18T06:34:22;87.68;;;80.43;;
9716;SDS011;4897;43.570;27.832;2023-11-18T06:36:51;91.32;;;83.88;;
9716;SDS011;4897;43.570;27.832;2023-11-18T06:39:18;89.03;;;81.88;;
9716;SDS011;4897;43.570;27.832;2023-11-18T06:41:46;98.53;;;90.30;;
9716;SDS011;4897;43.570;27.832;2023-11-18T06:44:17;102.57;;;94.43;;
9716;SDS011;4897;43.570;27.832;2023-11-18T06:46:48;100.55;;;92.50;;
9716;SDS011;4897;43.570;27.832;2023-11-18T06:49:16;110.65;;;101.75;;
9716;SDS011;4897;43.570;27.832;2023-11-18T06:51:44;111.82;;;102.50;;
9716;SDS011;4897;43.570;27.832;2023-11-18T06:54:10;119.13;;;109.45;;
9716;SDS011;4897;43.570;27.832;2023-11-18T06:56:39;126.15;;;116.22;;
9716;SDS011;4897;43.570;27.832;2023-11-18T06:59:07;140.05;;;129.32;;
9716;SDS011;4897;43.570;27.832;2023-11-18T07:01:39;139.57;;;129.07;;
9716;SDS011;4897;43.570;27.832;2023-11-18T07:04:07;156.57;;;144.32;;
9716;SDS011;4897;43.570;27.832;2023-11-18T07:06:34;147.77;;;136.25;;
9716;SDS011;4897;43.570;27.832;2023-11-18T07:09:03;158.93;;;146.57;;
9716;SDS011;4897;43.570;27.832;2023-11-18T07:11:38;185.20;;;171.55;;
9716;SDS011;4897;43.570;27.832;2023-11-18T07:14:06;197.93;;;183.70;;
9716;SDS011;4897;43.570;27.832;2023-11-18T07:16:34;183.50;;;170.30;;
9716;SDS011;4897;43.570;27.832;2023-11-18T07:19:03;201.88;;;187.57;;
9716;SDS011;4897;43.570;27.832;2023-11-18T07:21:30;203.60;;;188.77;;
9716;SDS011;4897;43.570;27.832;2023-11-18T07:23:58;186.40;;;173.20;;
9716;SDS011;4897;43.570;27.832;2023-11-18T07:26:24;211.27;;;196.77;;
9716;SDS011;4897;43.570;27.832;2023-11-18T07:28:51;204.23;;;190.48;;
9716;SDS011;4897;43.570;27.832;2023-11-18T07:31:18;170.15;;;158.60;;
9716;SDS011;4897;43.570;27.832;2023-11-18T07:33:45;191.95;;;178.88;;
9716;SDS011;4897;43.570;27.832;2023-11-18T07:36:16;195.02;;;182.00;;
9716;SDS011;4897;43.570;27.832;2023-11-18T07:38:45;210.48;;;196.70;;
9716;SDS011;4897;43.570;27.832;2023-11-18T07:41:12;215.05;;;200.98;;
9716;SDS011;4897;43.570;27.832;2023-11-18T07:43:48;199.00;;;185.68;;
9716;SDS011;4897;43.570;27.832;2023-11-18T07:46:16;199.45;;;186.07;;
9716;SDS011;4897;43.570;27.832;2023-11-18T07:48:43;212.77;;;198.70;;
9716;SDS011;4897;43.570;27.832;2023-11-18T07:51:11;216.60;;;202.40;;
9716;SDS011;4897;43.570;27.832;2023-11-18T07:53:42;216.15;;;201.70;;
9716;SDS011;4897;43.570;27.832;2023-11-18T07:56:09;215.15;;;201.20;;
9716;SDS011;4897;43.570;27.832;2023-11-18T07:58:38;210.20;;;195.85;;
9716;SDS011;4897;43.570;27.832;2023-11-18T08:01:08;223.80;;;209.32;;
9716;SDS011;4897;43.570;27.832;2023-11-18T08:03:35;187.88;;;174.98;;
9716;SDS011;4897;43.570;27.832;2023-11-18T08:06:03;202.10;;;188.60;;
9716;SDS011;4897;43.570;27.832;2023-11-18T08:08:32;179.73;;;167.25;;
9716;SDS011;4897;43.570;27.832;2023-11-18T08:11:04;178.75;;;167.00;;
9716;SDS011;4897;43.570;27.832;2023-11-18T08:13:32;171.07;;;159.43;;
9716;SDS011;4897;43.570;27.832;2023-11-18T08:15:59;198.38;;;185.07;;
9716;SDS011;4897;43.570;27.832;2023-11-18T08:18:26;205.68;;;192.18;;
9716;SDS011;4897;43.570;27.832;2023-11-18T08:20:56;219.57;;;204.88;;
9716;SDS011;4897;43.570;27.832;2023-11-18T08:23:25;222.60;;;207.93;;
9716;SDS011;4897;43.570;27.832;2023-11-18T08:25:53;219.25;;;204.88;;
9716;SDS011;4897;43.570;27.832;2023-11-18T08:28:21;231.80;;;216.85;;
9716;SDS011;4897;43.570;27.832;2023-11-18T08:30:48;225.88;;;210.85;;
9716;SDS011;4897;43.570;27.832;2023-11-18T08:33:16;236.88;;;221.75;;
9716;SDS011;4897;43.570;27.832;2023-11-18T08:35:43;232.85;;;217.52;;
9716;SDS011;4897;43.570;27.832;2023-11-18T08:38:11;232.80;;;217.93;;
9716;SDS011;4897;43.570;27.832;2023-11-18T08:40:38;234.85;;;219.70;;
9716;SDS011;4897;43.570;27.832;2023-11-18T08:43:07;198.60;;;186.13;;
9716;SDS011;4897;43.570;27.832;2023-11-18T08:45:36;199.70;;;186.82;;
9716;SDS011;4897;43.570;27.832;2023-11-18T08:48:03;211.90;;;198.40;;
9716;SDS011;4897;43.570;27.832;2023-11-18T08:50:33;188.82;;;176.55;;
9716;SDS011;4897;43.570;27.832;2023-11-18T08:53:01;212.57;;;198.73;;
9716;SDS011;4897;43.570;27.832;2023-11-18T08:55:31;204.63;;;191.48;;
9716;SDS011;4897;43.570;27.832;2023-11-18T08:58:16;216.55;;;202.63;;
9716;SDS011;4897;43.570;27.832;2023-11-18T09:00:46;210.18;;;196.45;;
9716;SDS011;4897;43.570;27.832;2023-11-18T09:03:18;224.10;;;210.00;;
9716;SDS011;4897;43.570;27.832;2023-11-18T09:05:52;226.07;;;211.88;;
9716;SDS011;4897;43.570;27.832;2023-11-18T09:08:24;224.60;;;210.27;;
9716;SDS011;4897;43.570;27.832;2023-11-18T09:10:52;237.25;;;222.30;;
9716;SDS011;4897;43.570;27.832;2023-11-18T09:13:20;234.50;;;219.55;;
9716;SDS011;4897;43.570;27.832;2023-11-18T09:15:55;223.00;;;208.82;;
9716;SDS011;4897;43.570;27.832;2023-11-18T09:18:23;202.93;;;190.07;;
9716;SDS011;4897;43.570;27.832;2023-11-18T09:20:51;216.55;;;202.60;;
9716;SDS011;4897;43.570;27.832;2023-11-18T09:23:19;201.02;;;188.13;;
9716;SDS011;4897;43.570;27.832;2023-11-18T09:25:48;208.27;;;194.75;;
9716;SDS011;4897;43.570;27.832;2023-11-18T09:28:15;219.38;;;205.32;;
9716;SDS011;4897;43.570;27.832;2023-11-18T09:30:43;209.57;;;196.27;;
9716;SDS011;4897;43.570;27.832;2023-11-18T09:33:20;212.00;;;198.32;;
9716;SDS011;4897;43.570;27.832;2023-11-18T09:35:57;205.30;;;191.98;;
9716;SDS011;4897;43.570;27.832;2023-11-18T09:38:28;23.17;;;21.05;;
9716;SDS011;4897;43.570;27.832;2023-11-18T09:40:55;23.45;;;21.05;;
9716;SDS011;4897;43.570;27.832;2023-11-18T09:43:26;25.10;;;22.55;;
9716;SDS011;4897;43.570;27.832;2023-11-18T09:45:59;23.27;;;21.08;;
9716;SDS011;4897;43.570;27.832;2023-11-18T09:48:35;31.70;;;28.55;;
9716;SDS011;4897;43.570;27.832;2023-11-18T09:51:05;33.55;;;30.23;;
9716;SDS011;4897;43.570;27.832;2023-11-18T09:53:34;35.63;;;31.92;;
9716;SDS011;4897;43.570;27.832;2023-11-18T09:56:06;32.63;;;29.25;;
9716;SDS011;4897;43.570;27.832;2023-11-18T09:58:45;33.03;;;29.92;;
9716;SDS011;4897;43.570;27.832;2023-11-18T10:01:20;32.33;;;29.13;;
9716;SDS011;4897;43.570;27.832;2023-11-18T10:03:53;30.00;;;27.00;;
9716;SDS011;4897;43.570;27.832;2023-11-18T10:06:23;33.65;;;30.45;;
9716;SDS011;4897;43.570;27.832;2023-11-18T10:08:55;25.05;;;22.50;;
9716;SDS011;4897;43.570;27.832;2023-11-18T10:11:26;24.88;;;22.33;;
9716;SDS011;4897;43.570;27.832;2023-11-18T10:13:54;23.17;;;20.77;;
9716;SDS011;4897;43.570;27.832;2023-11-18T10:16:31;25.60;;;22.98;;
9716;SDS011;4897;43.570;27.832;2023-11-18T10:18:58;23.70;;;21.30;;
9716;SDS011;4897;43.570;27.832;2023-11-18T10:21:33;24.10;;;21.52;;
9716;SDS011;4897;43.570;27.832;2023-11-18T10:24:04;24.17;;;21.70;;
9716;SDS011;4897;43.570;27.832;2023-11-18T10:26:39;23.40;;;20.98;;
9716;SDS011;4897;43.570;27.832;2023-11-18T10:29:07;23.02;;;20.60;;
9716;SDS011;4897;43.570;27.832;2023-11-18T10:31:36;25.70;;;22.98;;
9716;SDS011;4897;43.570;27.832;2023-11-18T10:34:12;24.00;;;21.48;;
9716;SDS011;4897;43.570;27.832;2023-11-18T10:36:41;22.85;;;20.55;;
9716;SDS011;4897;43.570;27.832;2023-11-18T10:39:10;23.35;;;20.90;;
9716;SDS011;4897;43.570;27.832;2023-11-18T10:41:42;22.42;;;20.13;;
9716;SDS011;4897;43.570;27.832;2023-11-18T10:44:13;23.50;;;20.48;;
9716;SDS011;4897;43.570;27.832;2023-11-18T10:46:50;21.98;;;19.77;;
9716;SDS011;4897;43.570;27.832;2023-11-18T10:49:21;22.20;;;19.92;;
9716;SDS011;4897;43.570;27.832;2023-11-18T10:51:50;22.35;;;20.15;;
9716;SDS011;4897;43.570;27.832;2023-11-18T10:54:17;23.08;;;20.85;;
9716;SDS011;4897;43.570;27.832;2023-11-18T10:56:48;22.48;;;20.27;;
9716;SDS011;4897;43.570;27.832;2023-11-18T10:59:16;21.48;;;19.27;;
9716;SDS011;4897;43.570;27.832;2023-11-18T11:01:43;21.20;;;19.00;;
9716;SDS011;4897;43.570;27.832;2023-11-18T11:04:14;23.05;;;20.75;;
9716;SDS011;4897;43.570;27.832;2023-11-18T11:06:47;21.33;;;19.23;;
9716;SDS011;4897;43.570;27.832;2023-11-18T11:09:18;22.58;;;20.38;;
9716;SDS011;4897;43.570;27.832;2023-11-18T11:11:51;21.08;;;19.08;;
9716;SDS011;4897;43.570;27.832;2023-11-18T11:14:20;21.90;;;19.67;;
9716;SDS011;4897;43.570;27.832;2023-11-18T11:16:51;21.95;;;19.80;;
9716;SDS011;4897;43.570;27.832;2023-11-18T11:19:24;21.02;;;19.02;;
9716;SDS011;4897;43.570;27.832;2023-11-18T11:22:04;22.13;;;19.88;;
9716;SDS011;4897;43.570;27.832;2023-11-18T11:24:40;23.42;;;21.02;;
9716;SDS011;4897;43.570;27.832;2023-11-18T11:27:36;21.23;;;19.23;;
9716;SDS011;4897;43.570;27.832;2023-11-18T11:30:16;22.30;;;20.15;;
9716;SDS011;4897;43.570;27.832;2023-11-18T11:32:50;22.05;;;19.75;;
9716;SDS011;4897;43.570;27.832;2023-11-18T11:35:19;20.40;;;18.40;;
9716;SDS011;4897;43.570;27.832;2023-11-18T11:37:54;22.77;;;20.45;;
9716;SDS011;4897;43.570;27.832;2023-11-18T11:40:28;21.20;;;19.10;;
9716;SDS011;4897;43.570;27.832;2023-11-18T11:42:59;20.52;;;18.42;;
9716;SDS011;4897;43.570;27.832;2023-11-18T11:45:30;19.90;;;18.00;;
9716;SDS011;4897;43.570;27.832;2023-11-18T11:48:01;19.42;;;17.63;;
9716;SDS011;4897;43.570;27.832;2023-11-18T11:53:32;19.52;;;17.70;;
9716;SDS011;4897;43.570;27.832;2023-11-18T11:56:04;19.25;;;17.45;;
9716;SDS011;4897;43.570;27.832;2023-11-18T11:58:33;19.17;;;17.38;;
9716;SDS011;4897;43.570;27.832;2023-11-18T12:01:02;17.40;;;15.80;;
9716;SDS011;4897;43.570;27.832;2023-11-18T12:03:45;17.92;;;16.30;;
9716;SDS011;4897;43.570;27.832;2023-11-18T12:06:17;18.63;;;16.92;;
9716;SDS011;4897;43.570;27.832;2023-11-18T12:08:49;16.10;;;14.55;;
9716;SDS011;4897;43.570;27.832;2023-11-18T12:11:17;17.67;;;16.08;;
9716;SDS011;4897;43.570;27.832;2023-11-18T12:13:59;17.05;;;15.45;;
9716;SDS011;4897;43.570;27.832;2023-11-18T12:19:35;16.90;;;15.30;;
9716;SDS011;4897;43.570;27.832;2023-11-18T12:22:10;16.85;;;15.25;;
9716;SDS011;4897;43.570;27.832;2023-11-18T12:24:45;16.40;;;14.90;;
9716;SDS011;4897;43.570;27.832;2023-11-18T12:33:09;16.63;;;15.02;;
9716;SDS011;4897;43.570;27.832;2023-11-18T12:35:39;17.10;;;15.50;;
9716;SDS011;4897;43.570;27.832;2023-11-18T12:38:28;17.13;;;15.52;;
9716;SDS011;4897;43.570;27.832;2023-11-18T12:41:15;16.63;;;15.13;;
9716;SDS011;4897;43.570;27.832;2023-11-18T12:44:02;16.83;;;15.23;;
9716;SDS011;4897;43.570;27.832;2023-11-18T12:46:49;18.00;;;16.30;;
9716;SDS011;4897;43.570;27.832;2023-11-18T12:49:18;17.55;;;15.95;;
9716;SDS011;4897;43.570;27.832;2023-11-18T12:51:49;16.88;;;15.27;;
9716;SDS011;4897;43.570;27.832;2023-11-18T12:54:17;17.05;;;15.45;;
9716;SDS011;4897;43.570;27.832;2023-11-18T12:56:46;17.42;;;15.73;;
9716;SDS011;4897;43.570;27.832;2023-11-18T12:59:14;16.38;;;14.88;;
9716;SDS011;4897;43.570;27.832;2023-11-18T13:01:43;16.77;;;15.27;;
9716;SDS011;4897;43.570;27.832;2023-11-18T13:04:16;15.88;;;14.38;;
9716;SDS011;4897;43.570;27.832;2023-11-18T13:06:44;16.25;;;14.80;;
9716;SDS011;4897;43.570;27.832;2023-11-18T13:09:13;15.95;;;14.45;;
9716;SDS011;4897;43.570;27.832;2023-11-18T13:11:52;15.93;;;14.43;;
9716;SDS011;4897;43.570;27.832;2023-11-18T13:14:23;16.63;;;15.02;;
9716;SDS011;4897;43.570;27.832;2023-11-18T13:16:51;16.48;;;14.88;;
9716;SDS011;4897;43.570;27.832;2023-11-18T13:19:25;16.90;;;15.10;;
9716;SDS011;4897;43.570;27.832;2023-11-18T13:21:56;16.02;;;14.52;;
9716;SDS011;4897;43.570;27.832;2023-11-18T13:24:25;16.02;;;14.52;;
9716;SDS011;4897;43.570;27.832;2023-11-18T13:26:56;15.50;;;14.10;;
9716;SDS011;4897;43.570;27.832;2023-11-18T13:29:24;15.10;;;13.70;;
9716;SDS011;4897;43.570;27.832;2023-11-18T13:31:51;15.23;;;13.73;;
9716;SDS011;4897;43.570;27.832;2023-11-18T13:34:21;16.17;;;14.50;;
9716;SDS011;4897;43.570;27.832;2023-11-18T13:36:49;16.27;;;14.77;;
9716;SDS011;4897;43.570;27.832;2023-11-18T13:39:16;15.38;;;13.98;;
9716;SDS011;4897;43.570;27.832;2023-11-18T13:41:44;15.93;;;14.43;;
9716;SDS011;4897;43.570;27.832;2023-11-18T13:44:23;14.27;;;12.95;;
9716;SDS011;4897;43.570;27.832;2023-11-18T13:46:59;15.63;;;13.98;;
9716;SDS011;4897;43.570;27.832;2023-11-18T13:49:27;14.32;;;13.02;;
9716;SDS011;4897;43.570;27.832;2023-11-18T13:51:54;15.80;;;14.40;;
9716;SDS011;4897;43.570;27.832;2023-11-18T13:54:22;18.88;;;13.00;;
9716;SDS011;4897;43.570;27.832;2023-11-18T13:56:57;14.63;;;13.32;;
9716;SDS011;4897;43.570;27.832;2023-11-18T13:59:27;14.30;;;13.00;;
9716;SDS011;4897;43.570;27.832;2023-11-18T14:01:54;15.82;;;14.32;;
9716;SDS011;4897;43.570;27.832;2023-11-18T14:04:27;15.30;;;13.80;;
9716;SDS011;4897;43.570;27.832;2023-11-18T14:06:56;15.20;;;13.80;;
9716;SDS011;4897;43.570;27.832;2023-11-18T14:09:24;15.80;;;14.32;;
9716;SDS011;4897;43.570;27.832;2023-11-18T14:11:52;19.58;;;17.67;;
9716;SDS011;4897;43.570;27.832;2023-11-18T14:14:20;19.38;;;17.77;;
9716;SDS011;4897;43.570;27.832;2023-11-18T14:16:48;19.30;;;17.60;;
9716;SDS011;4897;43.570;27.832;2023-11-18T14:19:16;22.45;;;17.85;;
9716;SDS011;4897;43.570;27.832;2023-11-18T14:21:43;20.25;;;18.45;;
9716;SDS011;4897;43.570;27.832;2023-11-18T14:24:10;20.02;;;18.33;;
9716;SDS011;4897;43.570;27.832;2023-11-18T14:26:38;19.70;;;17.90;;
9716;SDS011;4897;43.570;27.832;2023-11-18T14:29:06;22.42;;;20.42;;
9716;SDS011;4897;43.570;27.832;2023-11-18T14:31:33;20.65;;;18.77;;
9716;SDS011;4897;43.570;27.832;2023-11-18T14:34:02;19.20;;;17.30;;
9716;SDS011;4897;43.570;27.832;2023-11-18T14:36:29;20.45;;;18.65;;
9716;SDS011;4897;43.570;27.832;2023-11-18T14:38:56;20.60;;;18.80;;
9716;SDS011;4897;43.570;27.832;2023-11-18T14:41:24;19.00;;;17.30;;
9716;SDS011;4897;43.570;27.832;2023-11-18T14:43:51;19.40;;;17.60;;
9716;SDS011;4897;43.570;27.832;2023-11-18T14:46:19;20.80;;;18.90;;
9716;SDS011;4897;43.570;27.832;2023-11-18T14:48:46;21.90;;;19.80;;
9716;SDS011;4897;43.570;27.832;2023-11-18T14:51:15;20.33;;;18.55;;
9716;SDS011;4897;43.570;27.832;2023-11-18T14:53:42;18.80;;;17.13;;